createdAt,value
2022-10-03T00:01:51.188Z,0.80
2022-10-03T00:04:45.313Z,0.70
2022-10-03T00:07:52.617Z,0.80
2022-10-03T00:10:29.119Z,0.93
2022-10-03T00:13:02.336Z,0.70
2022-10-03T00:15:39.053Z,0.73
2022-10-03T00:18:37.304Z,0.90
2022-10-03T00:21:23.093Z,0.80
2022-10-03T00:24:08.987Z,1.23
2022-10-03T00:27:00.553Z,0.70
2022-10-03T00:29:43.322Z,0.80
2022-10-03T00:32:38.324Z,0.90
2022-10-03T00:35:42.492Z,0.87
2022-10-03T00:38:22.554Z,0.73
2022-10-03T00:41:10.433Z,0.90
2022-10-03T00:44:12.173Z,0.87
2022-10-03T00:46:42.673Z,1.10
2022-10-03T00:49:33.797Z,0.80
2022-10-03T00:52:22.643Z,0.90
2022-10-03T00:54:55.544Z,1.17
2022-10-03T00:57:51.736Z,0.90
2022-10-03T01:00:22.155Z,1.13
2022-10-03T01:02:52.468Z,1.03
2022-10-03T01:05:49.024Z,1.10
2022-10-03T01:08:34.162Z,1.30
2022-10-03T01:11:26.977Z,1.20
2022-10-03T01:14:03.322Z,1.00
2022-10-03T01:16:48.453Z,1.00
2022-10-03T01:19:50.226Z,1.10
2022-10-03T01:22:36.315Z,1.30
2022-10-03T01:25:37.571Z,1.10
2022-10-03T01:28:37.022Z,1.07
2022-10-03T01:31:10.189Z,1.10
2022-10-03T01:33:54.090Z,1.00
2022-10-03T01:36:34.859Z,1.10
2022-10-03T01:39:20.371Z,1.00
2022-10-03T01:42:10.452Z,1.00
2022-10-03T01:44:43.697Z,1.00
2022-10-03T01:47:27.194Z,1.17
2022-10-03T01:50:17.190Z,1.07
2022-10-03T01:52:53.297Z,1.33
2022-10-03T01:55:50.839Z,1.10
2022-10-03T01:58:45.832Z,1.03
2022-10-03T02:01:28.616Z,1.10
2022-10-03T02:04:14.262Z,0.90
2022-10-03T02:06:50.413Z,1.50
2022-10-03T02:09:36.550Z,1.30
2022-10-03T02:12:17.721Z,1.17
2022-10-03T02:15:01.454Z,1.27
2022-10-03T02:17:47.829Z,1.20
2022-10-03T02:20:28.197Z,1.30
2022-10-03T02:22:58.111Z,1.17
2022-10-03T02:25:59.315Z,1.30
2022-10-03T02:29:08.672Z,1.50
2022-10-03T02:32:09.698Z,1.07
2022-10-03T02:35:20.492Z,1.60
2022-10-03T02:38:12.836Z,1.30
2022-10-03T02:40:43.066Z,1.23
2022-10-03T02:43:16.877Z,1.23
2022-10-03T02:46:21.920Z,1.50
2022-10-03T02:49:18.109Z,1.40
2022-10-03T02:52:15.681Z,1.00
2022-10-03T02:55:21.068Z,1.33
2022-10-03T02:58:06.713Z,1.10
2022-10-03T03:01:12.334Z,1.80
2022-10-03T03:04:11.910Z,1.47
2022-10-03T03:07:15.242Z,1.30
2022-10-03T03:10:06.416Z,1.30
2022-10-03T03:13:07.460Z,1.50
2022-10-03T03:16:05.986Z,1.50
2022-10-03T03:18:49.210Z,1.50
2022-10-03T03:21:53.109Z,1.30
2022-10-03T03:24:27.697Z,1.60
2022-10-03T03:27:18.291Z,1.23
2022-10-03T03:30:09.894Z,1.67
2022-10-03T03:32:56.916Z,1.40
2022-10-03T03:35:55.341Z,1.50
2022-10-03T03:38:46.402Z,1.47
2022-10-03T03:41:34.981Z,1.23
2022-10-03T03:44:30.078Z,1.70
2022-10-03T03:47:14.582Z,1.40
2022-10-03T03:50:11.599Z,1.63
2022-10-03T03:52:57.964Z,1.60
2022-10-03T03:55:33.810Z,1.23
2022-10-03T03:58:32.577Z,1.90
2022-10-03T04:01:21.150Z,1.33
2022-10-03T04:04:14.033Z,1.70
2022-10-03T04:07:09.369Z,1.40
2022-10-03T04:09:58.908Z,1.70
2022-10-03T04:12:50.464Z,1.50
2022-10-03T04:15:39.730Z,1.63
2022-10-03T04:18:52.996Z,1.77
2022-10-03T04:21:28.281Z,1.47
2022-10-03T04:24:32.577Z,1.47
2022-10-03T04:27:38.105Z,1.60
2022-10-03T04:30:20.581Z,1.57
2022-10-03T04:33:09.411Z,1.67
2022-10-03T04:36:12.913Z,1.60
2022-10-03T04:39:18.920Z,1.80
2022-10-03T04:41:57.470Z,1.37
2022-10-03T04:44:35.847Z,1.50
2022-10-03T04:47:42.568Z,1.60
2022-10-03T04:50:12.582Z,1.63
2022-10-03T04:52:56.030Z,1.50
2022-10-03T04:55:51.323Z,1.73
2022-10-03T04:58:30.103Z,1.67
2022-10-03T05:01:43.411Z,1.27
2022-10-03T05:04:25.043Z,1.60
2022-10-03T05:07:07.276Z,1.67
2022-10-03T05:09:49.510Z,1.40
2022-10-03T05:12:41.380Z,1.60
2022-10-03T05:15:14.599Z,1.73
2022-10-03T05:18:04.902Z,1.87
2022-10-03T05:20:55.906Z,1.93
2022-10-03T05:24:03.161Z,1.60
2022-10-03T05:26:49.933Z,1.50
2022-10-03T05:29:27.961Z,1.60
2022-10-03T05:32:24.047Z,1.60
2022-10-03T05:35:00.204Z,1.53
2022-10-03T05:38:09.433Z,1.80
2022-10-03T05:40:41.266Z,1.50
2022-10-03T05:43:39.531Z,1.70
2022-10-03T05:46:28.020Z,1.80
2022-10-03T05:49:08.229Z,1.60
2022-10-03T05:52:02.148Z,1.40
2022-10-03T05:54:46.023Z,1.90
2022-10-03T05:57:24.929Z,1.53
2022-10-03T06:00:10.487Z,1.47
2022-10-03T06:03:05.564Z,1.50
2022-10-03T06:06:03.291Z,1.10
2022-10-03T06:08:41.846Z,1.60
2022-10-03T06:11:43.989Z,1.50
2022-10-03T06:14:30.041Z,1.60
2022-10-03T06:17:10.223Z,1.33
2022-10-03T06:20:00.206Z,1.40
2022-10-03T06:23:06.113Z,1.67
2022-10-03T06:26:04.120Z,1.70
2022-10-03T06:28:57.965Z,1.40
2022-10-03T06:31:49.432Z,1.57
2022-10-03T06:34:25.590Z,1.70
2022-10-03T06:37:25.542Z,1.50
2022-10-03T06:40:23.453Z,1.23
2022-10-03T06:42:56.875Z,1.40
2022-10-03T06:45:42.933Z,1.30
2022-10-03T06:48:46.911Z,1.40
2022-10-03T06:51:47.839Z,1.40
2022-10-03T06:54:23.679Z,1.90
2022-10-03T06:57:20.637Z,1.20
2022-10-03T07:00:24.903Z,1.17
2022-10-03T07:03:16.964Z,1.47
2022-10-03T07:06:06.149Z,1.40
2022-10-03T07:09:04.198Z,1.40
2022-10-03T07:12:19.407Z,1.20
2022-10-03T07:15:08.016Z,1.20
2022-10-03T07:17:47.575Z,1.17
2022-10-03T07:20:42.758Z,1.20
2022-10-03T07:23:18.857Z,1.70
2022-10-03T07:26:17.214Z,1.10
2022-10-03T07:29:08.967Z,1.20
2022-10-03T07:31:45.452Z,1.50
2022-10-03T07:34:30.327Z,1.40
2022-10-03T07:37:38.344Z,1.20
2022-10-03T07:40:46.155Z,1.40
2022-10-03T07:43:34.840Z,1.10
2022-10-03T07:46:21.101Z,1.33
2022-10-03T07:49:10.010Z,1.30
2022-10-03T07:52:15.642Z,1.00
2022-10-03T07:54:42.825Z,1.50
2022-10-03T07:57:24.501Z,1.20
2022-10-03T07:59:58.248Z,1.10
2022-10-03T08:03:03.412Z,1.07
2022-10-03T08:05:46.287Z,0.97
2022-10-03T08:08:19.868Z,1.20
2022-10-03T08:11:05.727Z,1.13
2022-10-03T08:13:59.584Z,1.40
2022-10-03T08:16:39.005Z,1.20
2022-10-03T08:19:38.415Z,1.37
2022-10-03T08:22:25.872Z,1.20
2022-10-03T08:25:22.097Z,1.07
2022-10-03T08:28:27.150Z,1.23
2022-10-03T08:31:18.861Z,1.30
2022-10-03T08:34:31.075Z,1.57
2022-10-03T08:37:07.521Z,1.20
2022-10-03T08:39:46.887Z,1.00
2022-10-03T08:42:25.296Z,1.40
2022-10-03T08:44:58.563Z,1.30
2022-10-03T08:48:10.459Z,1.20
2022-10-03T08:51:08.615Z,1.40
2022-10-03T08:53:56.517Z,1.20
2022-10-03T08:57:02.007Z,1.10
2022-10-03T09:00:13.777Z,0.90
2022-10-03T09:03:13.992Z,0.73
2022-10-03T09:06:13.501Z,1.40
2022-10-03T09:09:01.782Z,1.50
2022-10-03T09:11:44.659Z,0.90
2022-10-03T09:14:21.257Z,1.07
2022-10-03T09:16:51.335Z,1.20
2022-10-03T09:19:28.942Z,1.43
2022-10-03T09:22:07.254Z,1.10
2022-10-03T09:24:37.311Z,0.90
2022-10-03T09:27:26.883Z,1.40
2022-10-03T09:30:12.571Z,1.10
2022-10-03T09:33:12.227Z,1.10
2022-10-03T09:36:18.478Z,1.10
2022-10-03T09:39:13.764Z,0.73
2022-10-03T09:42:02.536Z,1.30
2022-10-03T09:45:03.204Z,0.70
2022-10-03T09:48:13.860Z,0.50
2022-10-03T09:51:00.019Z,0.80
2022-10-03T09:53:47.667Z,0.90
2022-10-03T09:56:39.121Z,0.73
2022-10-03T09:59:31.667Z,0.70
2022-10-03T10:02:20.785Z,0.57
2022-10-03T10:05:11.453Z,0.90
2022-10-03T10:08:06.746Z,1.00
2022-10-03T10:10:36.756Z,0.90
2022-10-03T10:13:44.299Z,0.77
2022-10-03T10:16:25.675Z,1.27
2022-10-03T10:19:13.956Z,0.80
2022-10-03T10:21:59.471Z,0.70
2022-10-03T10:24:49.668Z,0.77
2022-10-03T10:27:43.621Z,0.80
2022-10-03T10:30:21.999Z,0.90
2022-10-03T10:33:39.751Z,1.00
2022-10-03T10:36:35.297Z,0.80
2022-10-03T10:39:59.891Z,1.00
2022-10-03T10:42:48.388Z,0.70
2022-10-03T10:45:24.400Z,0.60
2022-10-03T10:48:10.337Z,1.00
2022-10-03T10:51:11.166Z,1.40
2022-10-03T10:54:06.235Z,1.20
2022-10-03T10:57:04.596Z,1.17
2022-10-03T11:00:03.748Z,1.00
2022-10-03T11:02:40.280Z,0.90
2022-10-03T11:05:40.315Z,0.90
2022-10-03T11:08:37.448Z,0.80
2022-10-03T11:11:23.457Z,0.90
2022-10-03T11:14:15.605Z,0.70
2022-10-03T11:17:38.008Z,0.70
2022-10-03T11:20:49.176Z,0.83
2022-10-03T11:23:37.903Z,0.60
2022-10-03T11:26:43.234Z,0.83
2022-10-03T11:29:42.200Z,0.80
2022-10-03T11:32:28.112Z,0.90
2022-10-03T11:35:43.075Z,0.90
2022-10-03T11:38:19.163Z,0.70
2022-10-03T11:41:07.885Z,0.60
2022-10-03T11:43:50.200Z,0.40
2022-10-03T11:46:44.912Z,0.60
2022-10-03T11:49:49.341Z,0.80
2022-10-03T11:52:50.460Z,1.17
2022-10-03T11:55:41.287Z,0.63
2022-10-03T11:58:27.345Z,0.70
2022-10-03T12:01:28.360Z,0.80
2022-10-03T12:04:11.554Z,0.80
2022-10-03T12:07:19.217Z,0.77
2022-10-03T12:09:58.221Z,0.70
2022-10-03T12:12:48.489Z,0.70
2022-10-03T12:15:41.898Z,0.70
2022-10-03T12:18:15.329Z,0.70
2022-10-03T12:20:42.653Z,0.80
2022-10-03T12:23:35.106Z,0.47
2022-10-03T12:26:04.900Z,0.50
2022-10-03T12:28:42.040Z,0.60
2022-10-03T12:31:24.167Z,0.60
2022-10-03T12:34:03.446Z,0.60
2022-10-03T12:36:51.110Z,0.50
2022-10-03T12:39:37.016Z,0.67
2022-10-03T12:42:18.775Z,0.63
2022-10-03T12:44:59.448Z,0.60
2022-10-03T12:47:55.826Z,0.50
2022-10-03T12:50:39.559Z,0.40
2022-10-03T12:53:12.544Z,0.70
2022-10-03T12:55:57.864Z,0.70
2022-10-03T12:58:58.386Z,0.57
2022-10-03T13:01:25.662Z,0.70
2022-10-03T13:04:14.061Z,0.57
2022-10-03T13:07:05.808Z,0.80
2022-10-03T13:10:05.545Z,0.80
2022-10-03T13:12:53.157Z,0.60
2022-10-03T13:15:42.862Z,0.53
2022-10-03T13:18:35.669Z,0.53
2022-10-03T13:21:45.431Z,0.60
2022-10-03T13:24:32.330Z,0.53
2022-10-03T13:27:17.765Z,0.50
2022-10-03T13:29:55.324Z,0.57
2022-10-03T13:32:51.039Z,0.57
2022-10-03T13:35:58.545Z,0.50
2022-10-03T13:38:47.954Z,0.40
2022-10-03T13:41:55.803Z,0.33
2022-10-03T13:44:34.026Z,0.60
2022-10-03T13:47:31.784Z,0.40
2022-10-03T13:50:36.633Z,0.57
2022-10-03T13:53:13.661Z,0.80
2022-10-03T13:55:44.956Z,0.53
2022-10-03T13:59:04.401Z,0.70
2022-10-03T14:01:53.492Z,0.90
2022-10-03T14:04:46.854Z,0.70
2022-10-03T14:07:37.341Z,0.40
2022-10-03T14:10:16.348Z,0.43
2022-10-03T14:13:16.836Z,0.50
2022-10-03T14:16:12.999Z,0.63
2022-10-03T14:19:00.005Z,0.60
2022-10-03T14:21:57.382Z,0.50
2022-10-03T14:24:37.017Z,0.93
2022-10-03T14:27:32.519Z,0.60
2022-10-03T14:30:19.623Z,0.90
2022-10-03T14:32:49.936Z,0.67
2022-10-03T14:35:38.673Z,1.53
2022-10-03T14:38:58.781Z,2.47
2022-10-03T14:41:35.215Z,1.00
2022-10-03T14:44:21.308Z,1.23
2022-10-03T14:46:59.048Z,0.70
2022-10-03T14:49:57.986Z,0.70
2022-10-03T14:52:47.014Z,0.77
2022-10-03T14:55:17.696Z,0.80
2022-10-03T14:58:09.401Z,0.90
2022-10-03T15:00:49.471Z,0.80
2022-10-03T15:03:29.112Z,0.90
2022-10-03T15:06:01.869Z,0.90
2022-10-03T15:08:39.430Z,0.77
2022-10-03T15:11:15.424Z,0.70
2022-10-03T15:13:55.012Z,1.00
2022-10-03T15:16:33.996Z,0.87
2022-10-03T15:19:27.733Z,0.70
2022-10-03T15:21:58.457Z,1.20
2022-10-03T15:24:31.144Z,1.00
2022-10-03T15:27:13.119Z,0.90
2022-10-03T15:29:53.840Z,1.97
2022-10-03T15:32:29.362Z,1.33
2022-10-03T15:35:00.739Z,0.93
2022-10-03T15:37:41.799Z,1.23
2022-10-03T15:40:36.476Z,1.00
2022-10-03T15:43:09.403Z,1.10
2022-10-03T15:45:38.686Z,0.70
2022-10-03T15:48:13.632Z,0.90
2022-10-03T15:50:50.644Z,0.80
2022-10-03T15:53:37.437Z,1.00
2022-10-03T15:56:15.496Z,0.90
2022-10-03T15:59:11.968Z,1.00
2022-10-03T16:01:51.337Z,0.87
2022-10-03T16:04:35.361Z,0.80
2022-10-03T16:07:37.853Z,1.10
2022-10-03T16:10:20.830Z,1.27
2022-10-03T16:13:00.505Z,1.20
2022-10-03T16:16:12.973Z,1.00
2022-10-03T16:18:54.973Z,0.70
2022-10-03T16:21:45.125Z,1.10
2022-10-03T16:24:21.346Z,1.07
2022-10-03T16:26:55.155Z,1.00
2022-10-03T16:29:34.625Z,1.00
2022-10-03T16:32:07.826Z,0.97
2022-10-03T16:34:37.463Z,0.90
2022-10-03T16:37:15.132Z,0.80
2022-10-03T16:39:47.383Z,0.87
2022-10-03T16:42:22.280Z,1.07
2022-10-03T16:44:52.536Z,1.90
2022-10-03T16:47:31.199Z,2.63
2022-10-03T16:50:18.927Z,1.13
2022-10-03T16:52:49.988Z,0.90
2022-10-03T16:55:18.789Z,2.93
2022-10-03T16:57:48.212Z,1.10
2022-10-03T17:00:22.094Z,1.77
2022-10-03T17:02:50.193Z,2.37
2022-10-03T17:05:18.980Z,1.10
2022-10-03T17:07:51.116Z,1.10
2022-10-03T17:10:31.686Z,0.80
2022-10-03T17:13:03.906Z,0.90
2022-10-03T17:15:38.451Z,1.07
2022-10-03T17:18:08.833Z,0.90
2022-10-03T17:20:47.992Z,0.70
2022-10-03T17:23:31.346Z,0.80
2022-10-03T17:26:02.322Z,1.10
2022-10-03T17:28:41.441Z,1.27
2022-10-03T17:31:56.436Z,1.20
2022-10-03T17:34:35.024Z,1.00
2022-10-03T17:37:15.301Z,1.20
2022-10-03T17:39:50.040Z,1.03
2022-10-03T17:42:29.790Z,0.83
2022-10-03T17:45:18.819Z,1.30
2022-10-03T17:47:57.410Z,1.27
2022-10-03T17:51:02.732Z,1.80
2022-10-03T17:53:34.347Z,1.50
2022-10-03T17:56:09.106Z,1.47
2022-10-03T17:58:40.984Z,1.50
2022-10-03T18:01:32.080Z,1.87
2022-10-03T18:04:06.049Z,1.50
2022-10-03T18:06:48.750Z,1.60
2022-10-03T18:09:16.328Z,1.40
2022-10-03T18:11:47.631Z,1.30
2022-10-03T18:14:43.917Z,1.10
2022-10-03T18:17:26.537Z,1.30
2022-10-03T18:20:06.693Z,1.37
2022-10-03T18:22:41.028Z,1.60
2022-10-03T18:25:42.275Z,1.20
2022-10-03T18:28:26.175Z,2.10
2022-10-03T18:31:01.095Z,1.83
2022-10-03T18:33:42.459Z,1.40
2022-10-03T18:36:19.131Z,1.17
2022-10-03T18:38:48.583Z,1.10
2022-10-03T18:41:17.487Z,1.40
2022-10-03T18:44:01.680Z,1.10
2022-10-03T18:46:39.125Z,1.80
2022-10-03T18:49:35.879Z,1.50
2022-10-03T18:52:32.914Z,1.03
2022-10-03T18:55:02.844Z,1.33
2022-10-03T18:57:38.268Z,1.50
2022-10-03T19:00:29.171Z,1.30
2022-10-03T19:03:18.626Z,1.93
2022-10-03T19:05:58.656Z,1.57
2022-10-03T19:08:48.646Z,1.57
2022-10-03T19:11:16.026Z,1.17
2022-10-03T19:14:07.270Z,1.20
2022-10-03T19:16:46.653Z,1.10
2022-10-03T19:19:41.668Z,1.17
2022-10-03T19:22:14.661Z,1.23
2022-10-03T19:24:58.494Z,1.03
2022-10-03T19:28:00.802Z,1.20
2022-10-03T19:30:31.016Z,1.47
2022-10-03T19:33:05.729Z,1.10
2022-10-03T19:35:38.078Z,1.10
2022-10-03T19:38:27.652Z,1.60
2022-10-03T19:40:56.872Z,1.10
2022-10-03T19:43:41.115Z,1.10
2022-10-03T19:46:27.086Z,1.30
2022-10-03T19:49:00.364Z,1.10
2022-10-03T19:51:28.177Z,1.00
2022-10-03T19:53:57.687Z,1.30
2022-10-03T19:56:30.444Z,1.27
2022-10-03T19:59:03.779Z,1.30
2022-10-03T20:01:45.220Z,1.33
2022-10-03T20:04:16.699Z,1.40
2022-10-03T20:06:49.194Z,1.10
2022-10-03T20:09:16.432Z,1.20
2022-10-03T20:11:57.865Z,0.93
2022-10-03T20:14:31.218Z,1.20
2022-10-03T20:17:02.552Z,1.20
2022-10-03T20:19:56.331Z,0.90
2022-10-03T20:22:31.062Z,1.10
2022-10-03T20:24:59.590Z,1.10
2022-10-03T20:28:04.950Z,1.43
2022-10-03T20:30:48.093Z,1.17
2022-10-03T20:33:22.647Z,1.27
2022-10-03T20:35:52.636Z,1.30
2022-10-03T20:38:38.132Z,1.47
2022-10-03T20:41:17.101Z,1.27
2022-10-03T20:43:47.113Z,1.30
2022-10-03T20:46:22.036Z,0.93
2022-10-03T20:49:10.739Z,1.43
2022-10-03T20:52:02.619Z,1.27
2022-10-03T20:54:36.364Z,1.30
2022-10-03T20:57:17.376Z,1.47
2022-10-03T20:59:52.534Z,1.47
2022-10-03T21:02:49.166Z,1.20
2022-10-03T21:05:24.792Z,1.50
2022-10-03T21:07:56.895Z,1.30
2022-10-03T21:10:33.011Z,1.60
2022-10-03T21:13:08.944Z,1.60
2022-10-03T21:15:51.804Z,1.63
2022-10-03T21:18:36.955Z,1.40
2022-10-03T21:21:22.150Z,1.83
2022-10-03T21:24:16.900Z,1.63
2022-10-03T21:26:53.075Z,1.27
2022-10-03T21:29:32.347Z,1.20
2022-10-03T21:32:25.654Z,1.50
2022-10-03T21:35:14.002Z,1.30
2022-10-03T21:37:51.269Z,1.40
2022-10-03T21:40:37.366Z,1.00
2022-10-03T21:43:20.073Z,1.20
2022-10-03T21:46:22.950Z,1.00
2022-10-03T21:49:06.762Z,1.30
2022-10-03T21:52:02.192Z,1.50
2022-10-03T21:54:35.168Z,1.20
2022-10-03T21:57:31.704Z,1.20
2022-10-03T22:00:11.669Z,1.50
2022-10-03T22:03:16.336Z,1.27
2022-10-03T22:05:55.596Z,1.50
2022-10-03T22:08:32.022Z,1.30
2022-10-03T22:11:30.837Z,1.23
2022-10-03T22:14:21.085Z,1.37
2022-10-03T22:17:19.972Z,1.47
2022-10-03T22:20:22.844Z,1.43
2022-10-03T22:23:15.023Z,1.40
2022-10-03T22:26:06.499Z,1.57
2022-10-03T22:29:07.774Z,1.50
2022-10-03T22:31:46.423Z,1.33
2022-10-03T22:34:29.448Z,1.10
2022-10-03T22:36:58.941Z,1.50
2022-10-03T22:39:28.087Z,1.27
2022-10-03T22:42:00.054Z,1.60
2022-10-03T22:44:32.209Z,1.47
2022-10-03T22:47:07.421Z,1.50
2022-10-03T22:49:41.119Z,1.70
2022-10-03T22:52:15.146Z,1.47
2022-10-03T22:54:45.224Z,1.60
2022-10-03T22:57:14.074Z,1.40
2022-10-03T22:59:50.555Z,1.30
2022-10-03T23:02:19.812Z,1.50
2022-10-03T23:04:53.647Z,1.40
2022-10-03T23:07:39.255Z,1.53
2022-10-03T23:10:27.764Z,1.60
2022-10-03T23:13:40.395Z,1.57
2022-10-03T23:16:20.504Z,1.50
2022-10-03T23:19:25.601Z,1.20
2022-10-03T23:21:56.353Z,1.03
2022-10-03T23:24:47.649Z,1.70
2022-10-03T23:27:53.120Z,1.90
2022-10-03T23:30:20.329Z,1.43
2022-10-03T23:32:47.518Z,1.50
2022-10-03T23:35:38.629Z,1.40
2022-10-03T23:38:31.703Z,1.70
2022-10-03T23:41:28.805Z,1.90
2022-10-03T23:43:57.303Z,1.53
2022-10-03T23:46:28.325Z,1.67
2022-10-03T23:48:59.695Z,1.67
2022-10-03T23:51:34.620Z,1.53
2022-10-03T23:54:08.153Z,1.70
2022-10-03T23:56:42.393Z,2.00
2022-10-03T23:59:23.952Z,1.93
